createdAt,value
2019-06-08T00:03:02.773Z,57.83
2019-06-08T00:06:08.566Z,57.66
2019-06-08T00:09:16.698Z,58.14
2019-06-08T00:12:23.240Z,58.06
2019-06-08T00:15:29.064Z,58.25
2019-06-08T00:18:34.805Z,58.72
2019-06-08T00:21:40.521Z,58.44
2019-06-08T00:24:46.269Z,58.44
2019-06-08T00:27:51.943Z,59.02
2019-06-08T00:30:57.618Z,59.30
2019-06-08T00:34:03.304Z,58.79
2019-06-08T00:37:09.033Z,58.88
2019-06-08T00:40:15.144Z,58.83
2019-06-08T00:43:21.398Z,58.63
2019-06-08T00:46:27.328Z,58.44
2019-06-08T00:49:33.045Z,58.77
2019-06-08T00:52:38.750Z,59.68
2019-06-08T00:55:44.559Z,59.29
2019-06-08T00:58:50.365Z,59.98
2019-06-08T01:01:56.166Z,59.72
2019-06-08T01:05:01.958Z,59.94
2019-06-08T01:08:07.964Z,60.02
2019-06-08T01:11:13.781Z,59.92
2019-06-08T01:14:20.791Z,60.63
2019-06-08T01:17:27.528Z,60.13
2019-06-08T01:20:33.409Z,59.79
2019-06-08T01:23:39.092Z,59.44
2019-06-08T01:26:44.900Z,58.99
2019-06-08T01:29:50.667Z,58.57
2019-06-08T01:32:56.582Z,58.79
2019-06-08T01:36:02.310Z,58.95
2019-06-08T01:39:08.626Z,58.38
2019-06-08T01:42:14.649Z,58.38
2019-06-08T01:45:30.472Z,58.24
2019-06-08T01:48:36.232Z,58.27
2019-06-08T01:51:42.008Z,58.33
2019-06-08T01:54:47.864Z,58.18
2019-06-08T01:57:53.627Z,57.93
2019-06-08T02:00:59.383Z,57.92
2019-06-08T02:04:05.445Z,57.80
2019-06-08T02:07:11.436Z,57.92
2019-06-08T02:10:17.399Z,58.72
2019-06-08T02:13:23.135Z,58.71
2019-06-08T02:16:29.692Z,59.14
2019-06-08T02:19:36.461Z,59.86
2019-06-08T02:22:42.185Z,59.52
2019-06-08T02:25:48.143Z,59.86
2019-06-08T02:28:56.977Z,59.66
2019-06-08T02:32:07.115Z,59.52
2019-06-08T02:35:18.446Z,59.38
2019-06-08T02:38:31.937Z,58.89
2019-06-08T02:41:39.819Z,58.88
2019-06-08T02:44:45.523Z,58.75
2019-06-08T02:47:51.334Z,58.42
2019-06-08T02:50:57.853Z,58.29
2019-06-08T02:54:04.750Z,58.40
2019-06-08T02:57:12.003Z,57.64
2019-06-08T03:00:18.840Z,57.47
2019-06-08T03:03:26.722Z,57.17
2019-06-08T03:06:34.704Z,57.26
2019-06-08T03:09:42.186Z,57.47
2019-06-08T03:12:50.331Z,57.26
2019-06-08T03:15:56.006Z,57.02
2019-06-08T03:19:20.150Z,56.25
2019-06-08T03:22:10.881Z,55.72
2019-06-08T03:25:16.446Z,55.54
2019-06-08T03:28:22.155Z,55.22
2019-06-08T03:31:27.838Z,54.62
2019-06-08T03:34:35.665Z,53.99
2019-06-08T03:37:42.844Z,53.84
2019-06-08T03:40:49.339Z,53.73
2019-06-08T03:43:55.031Z,52.84
2019-06-08T03:47:00.698Z,52.70
2019-06-08T03:50:08.794Z,52.42
2019-06-08T03:53:14.440Z,51.73
2019-06-08T03:56:20.165Z,51.92
2019-06-08T03:59:25.861Z,51.46
2019-06-08T04:02:31.532Z,52.17
2019-06-08T04:05:37.940Z,51.90
2019-06-08T04:08:47.048Z,51.32
2019-06-08T04:11:51.991Z,50.59
2019-06-08T04:15:00.265Z,50.58
2019-06-08T04:18:06.157Z,50.02
2019-06-08T04:21:11.993Z,49.45
2019-06-08T04:24:17.695Z,50.29
2019-06-08T04:27:23.391Z,50.02
2019-06-08T04:30:29.166Z,49.26
2019-06-08T04:33:34.895Z,50.98
2019-06-08T04:36:41.281Z,51.22
2019-06-08T04:39:47.563Z,52.01
2019-06-08T04:42:53.342Z,50.89
2019-06-08T04:45:59.003Z,51.31
2019-06-08T04:49:04.823Z,50.13
2019-06-08T04:52:10.559Z,51.17
2019-06-08T04:55:16.463Z,51.24
2019-06-08T04:58:23.559Z,50.78
2019-06-08T05:01:29.315Z,49.39
2019-06-08T05:04:34.995Z,48.81
2019-06-08T05:07:41.482Z,48.10
2019-06-08T05:10:49.706Z,48.57
2019-06-08T05:13:55.536Z,47.71
2019-06-08T05:17:01.263Z,47.40
2019-06-08T05:20:07.567Z,46.81
2019-06-08T05:23:13.278Z,46.40
2019-06-08T05:26:18.932Z,46.01
2019-06-08T05:29:24.655Z,45.95
2019-06-08T05:32:30.372Z,46.06
2019-06-08T05:35:36.153Z,45.83
2019-06-08T05:38:43.458Z,45.79
2019-06-08T05:41:49.794Z,45.86
2019-06-08T05:44:55.680Z,45.66
2019-06-08T05:48:01.318Z,45.15
2019-06-08T05:51:07.024Z,44.87
2019-06-08T05:54:12.720Z,44.03
2019-06-08T05:57:18.424Z,43.54
2019-06-08T06:00:24.360Z,42.83
2019-06-08T06:03:30.035Z,42.19
2019-06-08T06:06:35.744Z,41.65
2019-06-08T06:09:42.935Z,41.22
2019-06-08T06:12:49.081Z,40.75
2019-06-08T06:15:54.802Z,40.64
2019-06-08T06:19:00.532Z,40.40
2019-06-08T06:22:06.245Z,40.40
2019-06-08T06:25:12.093Z,39.50
2019-06-08T06:28:17.803Z,39.44
2019-06-08T06:31:23.456Z,39.75
2019-06-08T06:34:29.143Z,39.53
2019-06-08T06:37:34.952Z,38.90
2019-06-08T06:40:41.976Z,37.31
2019-06-08T06:43:48.163Z,36.94
2019-06-08T06:46:53.816Z,36.75
2019-06-08T06:49:59.501Z,37.20
2019-06-08T06:53:05.190Z,36.66
2019-06-08T06:56:10.870Z,36.69
2019-06-08T06:59:16.585Z,37.13
2019-06-08T07:02:22.943Z,36.91
2019-06-08T07:05:28.647Z,36.09
2019-06-08T07:08:34.323Z,36.21
2019-06-08T07:11:40.011Z,35.90
2019-06-08T07:14:46.931Z,36.76
2019-06-08T07:17:53.570Z,35.46
2019-06-08T07:21:00.173Z,36.88
2019-06-08T07:24:05.958Z,35.23
2019-06-08T07:27:11.714Z,35.69
2019-06-08T07:30:17.673Z,34.97
2019-06-08T07:33:23.374Z,34.86
2019-06-08T07:36:29.148Z,35.43
2019-06-08T07:39:34.842Z,35.20
2019-06-08T07:42:40.600Z,34.93
2019-06-08T07:45:46.262Z,34.99
2019-06-08T07:48:52.360Z,35.47
2019-06-08T07:52:08.263Z,35.48
2019-06-08T07:55:05.623Z,34.85
2019-06-08T07:58:11.291Z,34.82
2019-06-08T08:01:17.632Z,34.09
2019-06-08T08:04:23.311Z,34.03
2019-06-08T08:07:29.001Z,34.31
2019-06-08T08:10:34.652Z,33.26
2019-06-08T08:13:40.446Z,33.89
2019-06-08T08:16:46.133Z,34.65
2019-06-08T08:19:53.082Z,34.58
2019-06-08T08:23:05.611Z,34.69
2019-06-08T08:26:06.438Z,34.72
2019-06-08T08:29:12.128Z,33.80
2019-06-08T08:32:18.791Z,34.17
2019-06-08T08:35:24.710Z,33.60
2019-06-08T08:38:30.384Z,33.53
2019-06-08T08:41:36.176Z,33.36
2019-06-08T08:44:41.971Z,34.03
2019-06-08T08:47:48.482Z,33.92
2019-06-08T08:50:54.386Z,34.48
2019-06-08T08:54:04.754Z,33.81
2019-06-08T08:57:08.485Z,33.28
2019-06-08T09:00:14.548Z,33.83
2019-06-08T09:03:29.109Z,33.48
2019-06-08T09:06:28.100Z,33.19
2019-06-08T09:09:33.757Z,32.53
2019-06-08T09:12:39.494Z,32.38
2019-06-08T09:15:47.853Z,31.77
2019-06-08T09:18:53.762Z,31.97
2019-06-08T09:22:02.264Z,32.80
2019-06-08T09:25:08.788Z,32.55
2019-06-08T09:28:14.528Z,34.30
2019-06-08T09:31:20.245Z,33.56
2019-06-08T09:34:28.113Z,32.41
2019-06-08T09:37:33.312Z,32.35
2019-06-08T09:40:39.006Z,31.38
2019-06-08T09:43:44.785Z,30.38
2019-06-08T09:46:50.473Z,29.80
2019-06-08T09:49:58.807Z,29.50
2019-06-08T09:53:22.361Z,29.64
2019-06-08T09:56:11.031Z,29.32
2019-06-08T09:59:18.717Z,29.29
2019-06-08T10:02:24.119Z,28.09
2019-06-08T10:05:29.819Z,28.06
2019-06-08T10:08:35.506Z,27.91
2019-06-08T10:11:41.265Z,28.40
2019-06-08T10:14:49.020Z,26.54
2019-06-08T10:17:54.861Z,27.90
2019-06-08T10:21:04.964Z,28.03
2019-06-08T10:24:10.581Z,27.02
2019-06-08T10:27:18.765Z,26.51
2019-06-08T10:30:23.726Z,26.96
2019-06-08T10:33:29.387Z,22.57
2019-06-08T10:36:35.223Z,21.87
2019-06-08T10:39:40.937Z,21.94
2019-06-08T10:42:48.291Z,22.88
2019-06-08T10:45:54.095Z,23.10
2019-06-08T10:48:59.858Z,21.52
2019-06-08T10:52:09.846Z,24.36
2019-06-08T10:55:13.585Z,25.03
2019-06-08T10:58:20.718Z,24.93
2019-06-08T11:01:28.280Z,25.42
2019-06-08T11:04:33.800Z,25.58
2019-06-08T11:07:39.500Z,26.00
2019-06-08T11:10:47.440Z,26.00
2019-06-08T11:13:52.615Z,26.05
2019-06-08T11:16:58.497Z,26.60
2019-06-08T11:20:07.410Z,26.08
2019-06-08T11:23:12.664Z,25.95
2019-06-08T11:26:24.294Z,26.33
2019-06-08T11:29:27.628Z,26.39
2019-06-08T11:32:34.495Z,26.32
2019-06-08T11:35:40.198Z,25.99
2019-06-08T11:38:47.794Z,26.24
2019-06-08T11:41:53.688Z,25.89
2019-06-08T11:45:00.301Z,25.66
2019-06-08T11:48:06.532Z,25.99
2019-06-08T11:51:13.170Z,26.55
2019-06-08T11:54:32.884Z,26.24
2019-06-08T11:57:28.312Z,26.17
2019-06-08T12:01:13.795Z,26.04
2019-06-08T12:04:18.393Z,26.37
2019-06-08T12:07:25.400Z,26.19
2019-06-08T12:10:31.082Z,26.21
2019-06-08T12:13:36.900Z,26.66
2019-06-08T12:16:42.615Z,26.69
2019-06-08T12:19:48.261Z,26.45
2019-06-08T12:22:53.949Z,26.50
2019-06-08T12:25:59.647Z,26.61
2019-06-08T12:29:05.322Z,26.83
2019-06-08T12:32:13.592Z,26.76
2019-06-08T12:35:18.543Z,28.28
2019-06-08T12:38:24.232Z,26.36
2019-06-08T12:41:31.516Z,26.53
2019-06-08T12:44:38.223Z,26.42
2019-06-08T12:47:45.132Z,26.29
2019-06-08T12:50:50.837Z,26.10
2019-06-08T12:53:59.986Z,26.39
2019-06-08T12:57:03.914Z,25.99
2019-06-08T13:00:11.554Z,27.43
2019-06-08T13:03:18.682Z,26.77
2019-06-08T13:06:24.553Z,26.31
2019-06-08T13:09:30.280Z,26.70
2019-06-08T13:12:36.062Z,26.34
2019-06-08T13:15:41.721Z,26.41
2019-06-08T13:18:48.147Z,26.26
2019-06-08T13:21:54.153Z,26.58
2019-06-08T13:25:15.183Z,26.30
2019-06-08T13:28:12.257Z,26.05
2019-06-08T13:31:16.271Z,25.09
2019-06-08T13:34:24.092Z,24.93
2019-06-08T13:37:29.359Z,25.36
2019-06-08T13:40:37.696Z,25.64
2019-06-08T13:43:42.406Z,24.92
2019-06-08T13:46:49.241Z,24.76
2019-06-08T13:49:54.909Z,24.56
2019-06-08T13:53:00.838Z,24.58
2019-06-08T13:56:07.839Z,24.86
2019-06-08T13:59:18.071Z,24.80
2019-06-08T14:02:25.122Z,24.93
2019-06-08T14:05:31.933Z,25.24
2019-06-08T14:08:38.619Z,25.50
2019-06-08T14:11:44.423Z,25.58
2019-06-08T14:14:50.117Z,25.36
2019-06-08T14:17:55.749Z,25.39
2019-06-08T14:21:01.437Z,25.30
2019-06-08T14:24:07.758Z,25.53
2019-06-08T14:27:14.643Z,25.76
2019-06-08T14:30:22.150Z,25.81
2019-06-08T14:33:32.102Z,26.12
2019-06-08T14:36:35.394Z,26.39
2019-06-08T14:39:41.175Z,26.48
2019-06-08T14:42:48.451Z,26.40
2019-06-08T14:45:54.412Z,26.67
2019-06-08T14:49:00.081Z,26.40
2019-06-08T14:52:07.946Z,26.77
2019-06-08T14:55:13.511Z,26.99
2019-06-08T14:58:23.980Z,26.79
2019-06-08T15:01:29.787Z,27.77
2019-06-08T15:04:36.676Z,27.85
2019-06-08T15:07:41.425Z,28.01
2019-06-08T15:10:49.592Z,28.09
2019-06-08T15:13:54.541Z,28.29
2019-06-08T15:17:00.243Z,28.33
2019-06-08T15:20:08.637Z,28.63
2019-06-08T15:23:16.855Z,28.79
2019-06-08T15:26:29.035Z,29.42
2019-06-08T15:29:30.686Z,29.40
2019-06-08T15:32:38.576Z,29.26
2019-06-08T15:35:43.936Z,29.42
2019-06-08T15:38:49.621Z,29.45
2019-06-08T15:41:55.323Z,29.62
2019-06-08T15:45:01.115Z,29.69
2019-06-08T15:48:07.980Z,29.65
2019-06-08T15:51:13.869Z,29.69
2019-06-08T15:54:19.547Z,30.23
2019-06-08T15:57:27.538Z,30.72
2019-06-08T16:00:33.258Z,31.12
2019-06-08T16:03:40.117Z,31.15
2019-06-08T16:06:45.950Z,31.11
2019-06-08T16:09:51.607Z,31.81
2019-06-08T16:12:57.289Z,31.37
2019-06-08T16:16:02.974Z,31.62
2019-06-08T16:19:08.700Z,32.06
2019-06-08T16:22:14.376Z,32.68
2019-06-08T16:25:20.207Z,32.91
2019-06-08T16:28:25.916Z,33.82
2019-06-08T16:31:33.145Z,34.31
2019-06-08T16:34:39.687Z,34.44
2019-06-08T16:37:45.669Z,34.93
2019-06-08T16:40:51.449Z,35.15
2019-06-08T16:43:57.144Z,35.67
2019-06-08T16:47:02.807Z,36.35
2019-06-08T16:50:23.255Z,36.77
2019-06-08T16:53:16.710Z,37.16
2019-06-08T16:56:23.418Z,37.75
2019-06-08T16:59:30.163Z,37.97
2019-06-08T17:02:37.177Z,38.45
2019-06-08T17:05:43.106Z,39.22
2019-06-08T17:08:48.797Z,39.83
2019-06-08T17:11:54.618Z,39.83
2019-06-08T17:15:00.313Z,40.22
2019-06-08T17:18:06.056Z,40.90
2019-06-08T17:21:11.767Z,40.76
2019-06-08T17:24:17.401Z,41.17
2019-06-08T17:27:26.975Z,41.31
2019-06-08T17:30:30.758Z,41.46
2019-06-08T17:33:37.257Z,41.80
2019-06-08T17:36:43.002Z,41.81
2019-06-08T17:39:48.686Z,41.84
2019-06-08T17:42:54.380Z,41.80
2019-06-08T17:46:00.044Z,41.82
2019-06-08T17:49:06.078Z,42.40
2019-06-08T17:52:11.833Z,42.85
2019-06-08T17:55:17.770Z,43.03
2019-06-08T17:58:23.459Z,42.64
2019-06-08T18:01:29.339Z,41.32
2019-06-08T18:04:36.119Z,40.94
2019-06-08T18:07:44.317Z,40.93
2019-06-08T18:10:49.980Z,40.32
2019-06-08T18:13:58.264Z,40.76
2019-06-08T18:17:03.299Z,39.98
2019-06-08T18:20:11.830Z,39.66
2019-06-08T18:23:17.601Z,39.63
2019-06-08T18:26:23.333Z,39.55
2019-06-08T18:29:28.987Z,39.54
2019-06-08T18:32:34.862Z,38.27
2019-06-08T18:35:41.869Z,38.23
2019-06-08T18:38:48.603Z,38.41
2019-06-08T18:41:54.435Z,37.72
2019-06-08T18:45:00.116Z,38.17
2019-06-08T18:48:07.122Z,37.94
2019-06-08T18:51:17.439Z,37.99
2019-06-08T18:54:22.746Z,38.20
2019-06-08T18:57:28.477Z,38.15
2019-06-08T19:00:41.986Z,38.49
2019-06-08T19:03:49.815Z,38.66
2019-06-08T19:06:54.717Z,38.98
2019-06-08T19:10:03.451Z,39.58
2019-06-08T19:13:09.221Z,39.88
2019-06-08T19:16:14.938Z,40.08
2019-06-08T19:19:20.627Z,40.57
2019-06-08T19:22:30.030Z,40.22
2019-06-08T19:25:33.763Z,39.94
2019-06-08T19:28:44.965Z,40.12
2019-06-08T19:31:50.019Z,40.10
2019-06-08T19:34:54.956Z,40.29
2019-06-08T19:38:00.770Z,40.42
2019-06-08T19:41:08.132Z,41.06
2019-06-08T19:44:13.908Z,40.77
2019-06-08T19:47:19.587Z,41.41
2019-06-08T19:50:28.040Z,41.35
2019-06-08T19:53:32.796Z,41.20
2019-06-08T19:56:39.039Z,41.36
2019-06-08T19:59:46.021Z,41.29
2019-06-08T20:02:54.995Z,41.77
2019-06-08T20:05:59.099Z,41.68
2019-06-08T20:09:07.935Z,41.82
2019-06-08T20:12:13.113Z,41.97
2019-06-08T20:15:19.316Z,41.98
2019-06-08T20:18:25.015Z,42.15
2019-06-08T20:21:30.765Z,42.09
2019-06-08T20:24:37.768Z,42.02
2019-06-08T20:27:43.743Z,42.03
2019-06-08T20:30:50.602Z,42.24
2019-06-08T20:33:57.714Z,42.07
2019-06-08T20:37:03.464Z,42.07
2019-06-08T20:40:13.836Z,42.06
2019-06-08T20:43:17.685Z,42.32
2019-06-08T20:46:23.620Z,41.97
2019-06-08T20:49:29.350Z,42.08
2019-06-08T20:52:37.599Z,42.12
2019-06-08T20:55:43.121Z,42.26
2019-06-08T20:58:50.952Z,42.42
2019-06-08T21:01:58.625Z,42.54
2019-06-08T21:05:04.017Z,42.67
2019-06-08T21:08:09.725Z,42.92
2019-06-08T21:11:17.634Z,43.41
2019-06-08T21:14:22.886Z,43.65
2019-06-08T21:17:28.617Z,44.05
2019-06-08T21:20:34.287Z,44.66
2019-06-08T21:23:39.996Z,45.03
2019-06-08T21:26:50.693Z,45.37
2019-06-08T21:29:59.929Z,45.42
2019-06-08T21:33:00.999Z,45.82
2019-06-08T21:36:08.727Z,46.53
2019-06-08T21:39:14.247Z,46.95
2019-06-08T21:42:19.915Z,46.97
2019-06-08T21:45:27.474Z,47.78
2019-06-08T21:48:33.102Z,48.07
2019-06-08T21:51:38.813Z,48.99
2019-06-08T21:54:44.532Z,49.06
2019-06-08T21:57:52.696Z,49.37
2019-06-08T22:00:59.707Z,49.48
2019-06-08T22:04:07.653Z,50.14
2019-06-08T22:07:13.830Z,50.53
2019-06-08T22:10:19.617Z,50.56
2019-06-08T22:13:25.309Z,50.86
2019-06-08T22:16:31.078Z,50.52
2019-06-08T22:19:38.038Z,50.78
2019-06-08T22:22:43.881Z,51.37
2019-06-08T22:25:49.540Z,50.52
2019-06-08T22:28:55.466Z,50.63
2019-06-08T22:32:01.153Z,50.52
2019-06-08T22:35:07.988Z,50.36
2019-06-08T22:38:13.981Z,50.90
2019-06-08T22:41:19.650Z,50.91
2019-06-08T22:44:25.348Z,51.08
2019-06-08T22:47:31.035Z,51.26
2019-06-08T22:50:38.189Z,51.61
2019-06-08T22:53:44.177Z,51.53
2019-06-08T22:56:49.831Z,51.70
2019-06-08T22:59:58.112Z,51.23
2019-06-08T23:03:04.337Z,51.36
2019-06-08T23:06:10.286Z,51.30
2019-06-08T23:09:17.992Z,51.73
2019-06-08T23:12:23.374Z,51.26
2019-06-08T23:15:29.077Z,51.21
2019-06-08T23:18:37.166Z,51.09
2019-06-08T23:21:42.170Z,51.20
2019-06-08T23:24:47.834Z,50.66
2019-06-08T23:27:53.546Z,50.44
2019-06-08T23:31:11.838Z,50.29
2019-06-08T23:34:11.304Z,49.52
2019-06-08T23:37:14.950Z,49.09
2019-06-08T23:40:20.856Z,48.69
2019-06-08T23:43:28.111Z,48.22
2019-06-08T23:46:33.888Z,48.21
2019-06-08T23:49:39.552Z,47.96
2019-06-08T23:52:47.554Z,48.05
2019-06-08T23:55:52.657Z,48.14
2019-06-08T23:58:58.877Z,47.81
